sensor_id;sensor_type;location;lat;lon;timestamp;temperature;humidity
13850;DHT22;6995;52.618;13.488;2023-04-03T00:01:51;1.50;99.90
13850;DHT22;6995;52.618;13.488;2023-04-03T00:04:17;1.50;99.90
13850;DHT22;6995;52.618;13.488;2023-04-03T00:06:51;1.50;99.90
13850;DHT22;6995;52.618;13.488;2023-04-03T00:09:17;1.50;99.90
13850;DHT22;6995;52.618;13.488;2023-04-03T00:11:43;1.50;99.90
13850;DHT22;6995;52.618;13.488;2023-04-03T00:14:09;1.50;99.90
13850;DHT22;6995;52.618;13.488;2023-04-03T00:16:34;1.40;99.90
13850;DHT22;6995;52.618;13.488;2023-04-03T00:19:00;1.40;99.90
13850;DHT22;6995;52.618;13.488;2023-04-03T00:21:26;1.40;99.90
13850;DHT22;6995;52.618;13.488;2023-04-03T00:23:51;1.40;99.90
13850;DHT22;6995;52.618;13.488;2023-04-03T00:26:17;1.40;99.90
13850;DHT22;6995;52.618;13.488;2023-04-03T00:28:43;1.40;99.90
13850;DHT22;6995;52.618;13.488;2023-04-03T00:31:09;1.40;99.90
13850;DHT22;6995;52.618;13.488;2023-04-03T00:33:35;1.30;99.90
13850;DHT22;6995;52.618;13.488;2023-04-03T00:36:06;1.30;99.90
13850;DHT22;6995;52.618;13.488;2023-04-03T00:38:32;1.30;99.90
13850;DHT22;6995;52.618;13.488;2023-04-03T00:40:58;1.30;99.90
13850;DHT22;6995;52.618;13.488;2023-04-03T00:43:25;1.30;99.90
13850;DHT22;6995;52.618;13.488;2023-04-03T00:45:57;1.30;99.90
13850;DHT22;6995;52.618;13.488;2023-04-03T00:48:28;1.30;99.90
13850;DHT22;6995;52.618;13.488;2023-04-03T00:50:54;1.20;99.90
13850;DHT22;6995;52.618;13.488;2023-04-03T00:53:36;1.20;99.90
13850;DHT22;6995;52.618;13.488;2023-04-03T00:56:10;1.20;99.90
13850;DHT22;6995;52.618;13.488;2023-04-03T00:58:46;1.20;99.90
13850;DHT22;6995;52.618;13.488;2023-04-03T01:01:16;1.20;99.90
13850;DHT22;6995;52.618;13.488;2023-04-03T01:03:44;1.10;99.90
13850;DHT22;6995;52.618;13.488;2023-04-03T01:06:10;1.10;99.90
13850;DHT22;6995;52.618;13.488;2023-04-03T01:08:38;1.10;99.90
13850;DHT22;6995;52.618;13.488;2023-04-03T01:11:04;1.10;99.90
13850;DHT22;6995;52.618;13.488;2023-04-03T01:13:32;1.10;99.90
13850;DHT22;6995;52.618;13.488;2023-04-03T01:16:01;1.10;99.90
13850;DHT22;6995;52.618;13.488;2023-04-03T01:18:28;1.00;99.90
13850;DHT22;6995;52.618;13.488;2023-04-03T01:21:02;1.00;99.90
13850;DHT22;6995;52.618;13.488;2023-04-03T01:23:41;1.00;99.90
13850;DHT22;6995;52.618;13.488;2023-04-03T01:26:13;1.00;99.90
13850;DHT22;6995;52.618;13.488;2023-04-03T01:28:39;1.00;99.90
13850;DHT22;6995;52.618;13.488;2023-04-03T01:31:29;0.90;99.90
13850;DHT22;6995;52.618;13.488;2023-04-03T01:33:56;1.00;99.90
13850;DHT22;6995;52.618;13.488;2023-04-03T01:36:25;0.90;99.90
13850;DHT22;6995;52.618;13.488;2023-04-03T01:38:52;0.90;99.90
13850;DHT22;6995;52.618;13.488;2023-04-03T01:41:18;0.90;99.90
13850;DHT22;6995;52.618;13.488;2023-04-03T01:43:46;0.80;99.90
13850;DHT22;6995;52.618;13.488;2023-04-03T01:46:13;0.80;99.90
13850;DHT22;6995;52.618;13.488;2023-04-03T01:48:38;0.70;99.90
13850;DHT22;6995;52.618;13.488;2023-04-03T01:51:04;0.70;99.90
13850;DHT22;6995;52.618;13.488;2023-04-03T01:53:30;0.70;99.90
13850;DHT22;6995;52.618;13.488;2023-04-03T01:55:56;0.60;99.90
13850;DHT22;6995;52.618;13.488;2023-04-03T01:58:22;0.60;99.90
13850;DHT22;6995;52.618;13.488;2023-04-03T02:00:47;0.60;99.90
13850;DHT22;6995;52.618;13.488;2023-04-03T02:03:13;0.60;99.90
13850;DHT22;6995;52.618;13.488;2023-04-03T02:05:40;0.50;99.90
13850;DHT22;6995;52.618;13.488;2023-04-03T02:08:06;0.60;99.90
13850;DHT22;6995;52.618;13.488;2023-04-03T02:10:32;0.60;99.90
13850;DHT22;6995;52.618;13.488;2023-04-03T02:12:58;0.50;99.90
13850;DHT22;6995;52.618;13.488;2023-04-03T02:15:24;0.50;99.90
13850;DHT22;6995;52.618;13.488;2023-04-03T02:17:50;0.50;99.90
13850;DHT22;6995;52.618;13.488;2023-04-03T02:20:16;0.50;99.90
13850;DHT22;6995;52.618;13.488;2023-04-03T02:22:42;0.40;99.90
13850;DHT22;6995;52.618;13.488;2023-04-03T02:25:08;0.40;99.90
13850;DHT22;6995;52.618;13.488;2023-04-03T02:27:34;0.40;99.90
13850;DHT22;6995;52.618;13.488;2023-04-03T02:30:00;0.40;99.90
13850;DHT22;6995;52.618;13.488;2023-04-03T02:32:26;0.40;99.90
13850;DHT22;6995;52.618;13.488;2023-04-03T02:34:52;0.40;99.90
13850;DHT22;6995;52.618;13.488;2023-04-03T02:37:18;0.40;99.90
13850;DHT22;6995;52.618;13.488;2023-04-03T02:39:43;0.30;99.90
13850;DHT22;6995;52.618;13.488;2023-04-03T02:42:09;0.30;99.90
13850;DHT22;6995;52.618;13.488;2023-04-03T02:44:35;0.30;99.90
13850;DHT22;6995;52.618;13.488;2023-04-03T02:47:01;0.30;99.90
13850;DHT22;6995;52.618;13.488;2023-04-03T02:49:28;0.30;99.90
13850;DHT22;6995;52.618;13.488;2023-04-03T02:51:53;0.20;99.90
13850;DHT22;6995;52.618;13.488;2023-04-03T02:54:19;0.20;99.90
13850;DHT22;6995;52.618;13.488;2023-04-03T02:56:45;0.20;99.90
13850;DHT22;6995;52.618;13.488;2023-04-03T02:59:10;0.20;99.90
13850;DHT22;6995;52.618;13.488;2023-04-03T03:01:36;0.20;99.90
13850;DHT22;6995;52.618;13.488;2023-04-03T03:20:53;0.10;99.90
13850;DHT22;6995;52.618;13.488;2023-04-03T03:23:23;0.10;99.90
13850;DHT22;6995;52.618;13.488;2023-04-03T03:26:04;0.10;99.90
13850;DHT22;6995;52.618;13.488;2023-04-03T03:28:30;0.10;99.90
13850;DHT22;6995;52.618;13.488;2023-04-03T03:30:57;0.10;99.90
13850;DHT22;6995;52.618;13.488;2023-04-03T03:33:23;0.10;99.90
13850;DHT22;6995;52.618;13.488;2023-04-03T03:35:50;0.10;99.90
13850;DHT22;6995;52.618;13.488;2023-04-03T03:38:16;0.10;99.90
13850;DHT22;6995;52.618;13.488;2023-04-03T03:40:42;0.10;99.90
13850;DHT22;6995;52.618;13.488;2023-04-03T03:43:08;0.10;99.90
13850;DHT22;6995;52.618;13.488;2023-04-03T03:45:33;0.10;99.90
13850;DHT22;6995;52.618;13.488;2023-04-03T03:48:00;0.10;99.90
13850;DHT22;6995;52.618;13.488;2023-04-03T03:50:25;0.10;99.90
13850;DHT22;6995;52.618;13.488;2023-04-03T03:52:51;0.10;99.90
13850;DHT22;6995;52.618;13.488;2023-04-03T03:55:17;0.10;99.90
13850;DHT22;6995;52.618;13.488;2023-04-03T03:57:42;0.10;99.90
13850;DHT22;6995;52.618;13.488;2023-04-03T04:00:09;0.10;99.90
13850;DHT22;6995;52.618;13.488;2023-04-03T04:02:37;0.10;99.90
13850;DHT22;6995;52.618;13.488;2023-04-03T04:05:03;0.10;99.90
13850;DHT22;6995;52.618;13.488;2023-04-03T04:07:29;0.10;99.90
13850;DHT22;6995;52.618;13.488;2023-04-03T04:09:55;0.10;99.90
13850;DHT22;6995;52.618;13.488;2023-04-03T04:12:22;0.10;99.90
13850;DHT22;6995;52.618;13.488;2023-04-03T04:14:47;0.10;99.90
13850;DHT22;6995;52.618;13.488;2023-04-03T04:17:14;0.10;99.90
13850;DHT22;6995;52.618;13.488;2023-04-03T04:19:40;0.10;99.90
13850;DHT22;6995;52.618;13.488;2023-04-03T04:22:06;0.10;99.90
13850;DHT22;6995;52.618;13.488;2023-04-03T04:24:32;0.10;99.90
13850;DHT22;6995;52.618;13.488;2023-04-03T04:26:57;0.10;99.90
13850;DHT22;6995;52.618;13.488;2023-04-03T04:29:23;0.10;99.90
13850;DHT22;6995;52.618;13.488;2023-04-03T04:31:49;0.10;99.90
13850;DHT22;6995;52.618;13.488;2023-04-03T04:34:15;0.10;99.90
13850;DHT22;6995;52.618;13.488;2023-04-03T04:36:41;0.10;99.90
13850;DHT22;6995;52.618;13.488;2023-04-03T04:39:06;0.10;99.90
13850;DHT22;6995;52.618;13.488;2023-04-03T04:41:33;0.10;99.90
13850;DHT22;6995;52.618;13.488;2023-04-03T04:44:01;0.10;99.90
13850;DHT22;6995;52.618;13.488;2023-04-03T04:46:27;0.10;99.90
13850;DHT22;6995;52.618;13.488;2023-04-03T04:48:53;0.10;99.90
13850;DHT22;6995;52.618;13.488;2023-04-03T04:51:18;0.20;99.90
13850;DHT22;6995;52.618;13.488;2023-04-03T04:53:44;0.20;99.90
13850;DHT22;6995;52.618;13.488;2023-04-03T04:56:10;0.20;99.90
13850;DHT22;6995;52.618;13.488;2023-04-03T04:58:36;0.20;99.90
13850;DHT22;6995;52.618;13.488;2023-04-03T05:04:25;0.20;99.90
13850;DHT22;6995;52.618;13.488;2023-04-03T05:06:51;0.20;99.90
13850;DHT22;6995;52.618;13.488;2023-04-03T05:09:17;0.20;99.90
13850;DHT22;6995;52.618;13.488;2023-04-03T05:11:43;0.30;99.90
13850;DHT22;6995;52.618;13.488;2023-04-03T05:14:09;0.30;99.90
13850;DHT22;6995;52.618;13.488;2023-04-03T05:16:35;0.30;99.90
13850;DHT22;6995;52.618;13.488;2023-04-03T05:19:00;0.40;99.90
13850;DHT22;6995;52.618;13.488;2023-04-03T05:21:26;0.40;99.90
13850;DHT22;6995;52.618;13.488;2023-04-03T05:23:54;0.40;99.90
13850;DHT22;6995;52.618;13.488;2023-04-03T05:26:20;0.50;99.90
13850;DHT22;6995;52.618;13.488;2023-04-03T05:28:49;0.50;99.90
13850;DHT22;6995;52.618;13.488;2023-04-03T05:31:15;0.50;99.90
13850;DHT22;6995;52.618;13.488;2023-04-03T05:33:40;0.50;99.90
13850;DHT22;6995;52.618;13.488;2023-04-03T05:36:06;0.60;99.90
13850;DHT22;6995;52.618;13.488;2023-04-03T05:38:32;0.60;99.90
13850;DHT22;6995;52.618;13.488;2023-04-03T05:40:58;0.70;99.90
13850;DHT22;6995;52.618;13.488;2023-04-03T05:43:25;0.70;99.90
13850;DHT22;6995;52.618;13.488;2023-04-03T05:45:51;0.80;99.90
13850;DHT22;6995;52.618;13.488;2023-04-03T05:48:17;0.80;99.90
13850;DHT22;6995;52.618;13.488;2023-04-03T05:50:43;0.90;99.90
13850;DHT22;6995;52.618;13.488;2023-04-03T05:53:25;0.90;99.90
13850;DHT22;6995;52.618;13.488;2023-04-03T05:55:52;1.00;99.90
13850;DHT22;6995;52.618;13.488;2023-04-03T05:58:19;1.10;99.90
13850;DHT22;6995;52.618;13.488;2023-04-03T06:00:45;1.20;99.90
13850;DHT22;6995;52.618;13.488;2023-04-03T06:03:12;1.30;99.90
13850;DHT22;6995;52.618;13.488;2023-04-03T06:05:37;1.40;99.90
13850;DHT22;6995;52.618;13.488;2023-04-03T06:08:03;1.50;99.90
13850;DHT22;6995;52.618;13.488;2023-04-03T06:10:29;1.50;99.90
13850;DHT22;6995;52.618;13.488;2023-04-03T06:13:14;1.70;99.90
13850;DHT22;6995;52.618;13.488;2023-04-03T06:15:43;1.80;99.90
13850;DHT22;6995;52.618;13.488;2023-04-03T06:18:09;1.90;99.90
13850;DHT22;6995;52.618;13.488;2023-04-03T06:20:35;2.00;99.90
13850;DHT22;6995;52.618;13.488;2023-04-03T06:23:01;2.10;99.90
13850;DHT22;6995;52.618;13.488;2023-04-03T06:25:27;2.30;99.90
13850;DHT22;6995;52.618;13.488;2023-04-03T06:27:54;2.30;99.90
13850;DHT22;6995;52.618;13.488;2023-04-03T06:30:21;2.50;99.90
13850;DHT22;6995;52.618;13.488;2023-04-03T06:32:46;2.60;99.90
13850;DHT22;6995;52.618;13.488;2023-04-03T06:35:14;2.70;99.90
13850;DHT22;6995;52.618;13.488;2023-04-03T06:37:40;2.80;99.90
13850;DHT22;6995;52.618;13.488;2023-04-03T06:40:22;2.90;99.90
13850;DHT22;6995;52.618;13.488;2023-04-03T06:42:48;3.00;99.90
13850;DHT22;6995;52.618;13.488;2023-04-03T06:45:14;3.00;99.90
13850;DHT22;6995;52.618;13.488;2023-04-03T06:47:40;3.10;99.90
13850;DHT22;6995;52.618;13.488;2023-04-03T06:50:06;3.20;99.90
13850;DHT22;6995;52.618;13.488;2023-04-03T06:52:32;3.30;99.90
13850;DHT22;6995;52.618;13.488;2023-04-03T06:54:58;3.30;99.90
13850;DHT22;6995;52.618;13.488;2023-04-03T06:57:27;3.30;99.90
13850;DHT22;6995;52.618;13.488;2023-04-03T06:59:53;3.50;99.90
13850;DHT22;6995;52.618;13.488;2023-04-03T07:02:18;3.60;99.90
13850;DHT22;6995;52.618;13.488;2023-04-03T07:04:44;3.70;99.90
13850;DHT22;6995;52.618;13.488;2023-04-03T07:07:21;3.70;99.90
13850;DHT22;6995;52.618;13.488;2023-04-03T07:09:47;3.70;99.90
13850;DHT22;6995;52.618;13.488;2023-04-03T07:12:13;3.70;99.90
13850;DHT22;6995;52.618;13.488;2023-04-03T07:14:39;3.70;99.90
13850;DHT22;6995;52.618;13.488;2023-04-03T07:17:15;3.70;99.90
13850;DHT22;6995;52.618;13.488;2023-04-03T07:19:40;3.80;99.90
13850;DHT22;6995;52.618;13.488;2023-04-03T07:22:11;4.00;99.90
13850;DHT22;6995;52.618;13.488;2023-04-03T07:24:37;3.80;99.90
13850;DHT22;6995;52.618;13.488;2023-04-03T07:27:03;4.30;99.90
13850;DHT22;6995;52.618;13.488;2023-04-03T07:29:29;4.60;99.90
13850;DHT22;6995;52.618;13.488;2023-04-03T07:31:55;4.60;99.90
13850;DHT22;6995;52.618;13.488;2023-04-03T07:34:21;4.50;99.90
13850;DHT22;6995;52.618;13.488;2023-04-03T07:36:47;4.40;99.90
13850;DHT22;6995;52.618;13.488;2023-04-03T07:39:13;4.00;99.90
13850;DHT22;6995;52.618;13.488;2023-04-03T07:41:39;3.80;99.90
13850;DHT22;6995;52.618;13.488;2023-04-03T07:44:05;3.80;99.90
13850;DHT22;6995;52.618;13.488;2023-04-03T07:46:31;3.90;99.90
13850;DHT22;6995;52.618;13.488;2023-04-03T07:48:57;3.90;99.90
13850;DHT22;6995;52.618;13.488;2023-04-03T07:51:23;4.30;99.90
13850;DHT22;6995;52.618;13.488;2023-04-03T07:53:50;4.50;99.90
13850;DHT22;6995;52.618;13.488;2023-04-03T07:56:25;4.60;99.90
13850;DHT22;6995;52.618;13.488;2023-04-03T07:58:51;4.70;99.90
13850;DHT22;6995;52.618;13.488;2023-04-03T08:01:17;4.80;99.90
13850;DHT22;6995;52.618;13.488;2023-04-03T08:03:42;5.10;99.90
13850;DHT22;6995;52.618;13.488;2023-04-03T08:06:11;5.20;99.90
13850;DHT22;6995;52.618;13.488;2023-04-03T08:08:39;5.60;99.90
13850;DHT22;6995;52.618;13.488;2023-04-03T08:11:04;5.60;99.90
13850;DHT22;6995;52.618;13.488;2023-04-03T08:13:31;5.50;99.90
13850;DHT22;6995;52.618;13.488;2023-04-03T08:15:57;5.40;99.90
13850;DHT22;6995;52.618;13.488;2023-04-03T08:18:27;5.30;99.90
13850;DHT22;6995;52.618;13.488;2023-04-03T08:20:53;5.30;99.90
13850;DHT22;6995;52.618;13.488;2023-04-03T08:23:19;5.30;99.90
13850;DHT22;6995;52.618;13.488;2023-04-03T08:25:45;5.30;99.90
13850;DHT22;6995;52.618;13.488;2023-04-03T08:28:11;5.40;99.90
13850;DHT22;6995;52.618;13.488;2023-04-03T08:30:41;5.70;99.90
13850;DHT22;6995;52.618;13.488;2023-04-03T08:33:08;6.20;99.90
13850;DHT22;6995;52.618;13.488;2023-04-03T08:35:40;6.50;99.90
13850;DHT22;6995;52.618;13.488;2023-04-03T08:38:07;6.60;99.90
13850;DHT22;6995;52.618;13.488;2023-04-03T08:40:36;6.40;99.90
13850;DHT22;6995;52.618;13.488;2023-04-03T08:43:27;6.50;99.90
13850;DHT22;6995;52.618;13.488;2023-04-03T08:45:57;6.70;99.90
13850;DHT22;6995;52.618;13.488;2023-04-03T08:48:32;6.60;99.90
13850;DHT22;6995;52.618;13.488;2023-04-03T08:51:03;6.70;99.90
13850;DHT22;6995;52.618;13.488;2023-04-03T08:53:34;6.40;99.90
13850;DHT22;6995;52.618;13.488;2023-04-03T08:56:09;6.30;99.90
13850;DHT22;6995;52.618;13.488;2023-04-03T08:58:45;6.20;99.90
13850;DHT22;6995;52.618;13.488;2023-04-03T09:01:26;5.80;99.90
13850;DHT22;6995;52.618;13.488;2023-04-03T09:03:53;5.60;99.90
13850;DHT22;6995;52.618;13.488;2023-04-03T09:06:21;5.40;99.90
13850;DHT22;6995;52.618;13.488;2023-04-03T09:09:41;5.10;99.90
13850;DHT22;6995;52.618;13.488;2023-04-03T09:12:34;5.10;99.90
13850;DHT22;6995;52.618;13.488;2023-04-03T09:17:56;5.00;99.90
13850;DHT22;6995;52.618;13.488;2023-04-03T09:23:28;4.90;99.90
13850;DHT22;6995;52.618;13.488;2023-04-03T09:26:03;4.80;99.90
13850;DHT22;6995;52.618;13.488;2023-04-03T09:28:33;4.80;99.90
13850;DHT22;6995;52.618;13.488;2023-04-03T09:31:00;5.00;99.90
13850;DHT22;6995;52.618;13.488;2023-04-03T09:33:30;5.10;99.90
13850;DHT22;6995;52.618;13.488;2023-04-03T09:35:55;5.40;99.90
13850;DHT22;6995;52.618;13.488;2023-04-03T09:38:22;5.60;99.90
13850;DHT22;6995;52.618;13.488;2023-04-03T09:41:02;5.80;99.90
13850;DHT22;6995;52.618;13.488;2023-04-03T09:43:31;6.10;99.90
13850;DHT22;6995;52.618;13.488;2023-04-03T09:46:31;6.70;99.90
13850;DHT22;6995;52.618;13.488;2023-04-03T09:49:00;7.10;99.90
13850;DHT22;6995;52.618;13.488;2023-04-03T09:51:27;7.30;99.90
13850;DHT22;6995;52.618;13.488;2023-04-03T09:53:54;7.40;99.90
13850;DHT22;6995;52.618;13.488;2023-04-03T09:58:49;7.40;99.90
13850;DHT22;6995;52.618;13.488;2023-04-03T10:01:30;7.50;99.90
13850;DHT22;6995;52.618;13.488;2023-04-03T10:04:09;7.80;99.90
13850;DHT22;6995;52.618;13.488;2023-04-03T10:06:42;7.80;99.90
13850;DHT22;6995;52.618;13.488;2023-04-03T10:09:27;7.70;99.90
13850;DHT22;6995;52.618;13.488;2023-04-03T10:12:05;7.50;99.90
13850;DHT22;6995;52.618;13.488;2023-04-03T10:14:36;7.00;99.90
13850;DHT22;6995;52.618;13.488;2023-04-03T10:17:17;7.00;99.90
13850;DHT22;6995;52.618;13.488;2023-04-03T10:19:56;7.10;99.90
13850;DHT22;6995;52.618;13.488;2023-04-03T10:28:20;7.20;99.90
13850;DHT22;6995;52.618;13.488;2023-04-03T10:44:18;8.10;99.90
13850;DHT22;6995;52.618;13.488;2023-04-03T10:58:50;7.90;99.90
13850;DHT22;6995;52.618;13.488;2023-04-03T11:01:24;7.90;99.90
13850;DHT22;6995;52.618;13.488;2023-04-03T11:03:57;7.60;99.90
13850;DHT22;6995;52.618;13.488;2023-04-03T11:06:26;7.50;99.90
13850;DHT22;6995;52.618;13.488;2023-04-03T11:09:02;7.40;99.90
13850;DHT22;6995;52.618;13.488;2023-04-03T11:11:33;7.40;99.90
13850;DHT22;6995;52.618;13.488;2023-04-03T11:16:49;7.10;99.90
13850;DHT22;6995;52.618;13.488;2023-04-03T11:19:35;7.20;99.90
13850;DHT22;6995;52.618;13.488;2023-04-03T11:24:41;7.50;99.90
13850;DHT22;6995;52.618;13.488;2023-04-03T11:27:15;7.60;99.90
13850;DHT22;6995;52.618;13.488;2023-04-03T11:29:45;7.90;99.90
13850;DHT22;6995;52.618;13.488;2023-04-03T11:32:37;8.00;99.90
13850;DHT22;6995;52.618;13.488;2023-04-03T11:35:08;7.70;99.90
13850;DHT22;6995;52.618;13.488;2023-04-03T11:37:41;7.80;99.90
13850;DHT22;6995;52.618;13.488;2023-04-03T11:42:46;7.40;99.90
13850;DHT22;6995;52.618;13.488;2023-04-03T11:48:02;7.40;99.90
13850;DHT22;6995;52.618;13.488;2023-04-03T12:08:28;7.10;99.90
13850;DHT22;6995;52.618;13.488;2023-04-03T12:16:25;6.60;99.90
13850;DHT22;6995;52.618;13.488;2023-04-03T12:29:27;8.00;99.90
13850;DHT22;6995;52.618;13.488;2023-04-03T12:35:09;7.70;99.90
13850;DHT22;6995;52.618;13.488;2023-04-03T12:37:51;7.70;99.90
13850;DHT22;6995;52.618;13.488;2023-04-03T12:43:23;7.80;99.90
13850;DHT22;6995;52.618;13.488;2023-04-03T12:48:31;7.60;99.90
13850;DHT22;6995;52.618;13.488;2023-04-03T12:50:58;7.40;99.90
13850;DHT22;6995;52.618;13.488;2023-04-03T12:53:31;7.40;99.90
13850;DHT22;6995;52.618;13.488;2023-04-03T12:56:24;7.60;99.90
13850;DHT22;6995;52.618;13.488;2023-04-03T12:58:51;7.00;99.90
13850;DHT22;6995;52.618;13.488;2023-04-03T13:01:20;7.10;99.90
13850;DHT22;6995;52.618;13.488;2023-04-03T13:04:05;7.30;99.90
13850;DHT22;6995;52.618;13.488;2023-04-03T13:06:36;7.50;99.90
13850;DHT22;6995;52.618;13.488;2023-04-03T13:09:03;7.60;99.90
13850;DHT22;6995;52.618;13.488;2023-04-03T13:11:40;7.60;99.90
13850;DHT22;6995;52.618;13.488;2023-04-03T13:14:24;7.80;99.90
13850;DHT22;6995;52.618;13.488;2023-04-03T13:19:26;7.90;99.90
13850;DHT22;6995;52.618;13.488;2023-04-03T13:22:07;7.40;99.90
13850;DHT22;6995;52.618;13.488;2023-04-03T13:24:37;7.00;99.90
13850;DHT22;6995;52.618;13.488;2023-04-03T13:27:04;6.80;99.90
13850;DHT22;6995;52.618;13.488;2023-04-03T13:29:37;6.80;99.90
13850;DHT22;6995;52.618;13.488;2023-04-03T13:32:04;6.80;99.90
13850;DHT22;6995;52.618;13.488;2023-04-03T13:34:40;6.90;99.90
13850;DHT22;6995;52.618;13.488;2023-04-03T13:37:11;6.90;99.90
13850;DHT22;6995;52.618;13.488;2023-04-03T13:39:44;6.70;99.90
13850;DHT22;6995;52.618;13.488;2023-04-03T13:42:37;6.70;99.90
13850;DHT22;6995;52.618;13.488;2023-04-03T13:45:26;6.60;99.90
13850;DHT22;6995;52.618;13.488;2023-04-03T13:50:29;6.60;99.90
13850;DHT22;6995;52.618;13.488;2023-04-03T13:53:11;6.50;99.90
13850;DHT22;6995;52.618;13.488;2023-04-03T14:06:24;6.80;99.90
13850;DHT22;6995;52.618;13.488;2023-04-03T14:08:57;6.90;99.90
13850;DHT22;6995;52.618;13.488;2023-04-03T14:27:27;8.60;99.90
13850;DHT22;6995;52.618;13.488;2023-04-03T14:29:55;8.10;99.90
13850;DHT22;6995;52.618;13.488;2023-04-03T14:32:22;7.80;99.90
13850;DHT22;6995;52.618;13.488;2023-04-03T14:34:50;7.10;99.90
13850;DHT22;6995;52.618;13.488;2023-04-03T14:37:19;6.80;99.90
13850;DHT22;6995;52.618;13.488;2023-04-03T14:39:46;6.80;99.90
13850;DHT22;6995;52.618;13.488;2023-04-03T14:42:15;6.40;99.90
13850;DHT22;6995;52.618;13.488;2023-04-03T14:44:41;6.20;99.90
13850;DHT22;6995;52.618;13.488;2023-04-03T14:47:12;6.10;99.90
13850;DHT22;6995;52.618;13.488;2023-04-03T14:49:39;6.10;99.90
13850;DHT22;6995;52.618;13.488;2023-04-03T14:52:05;6.00;99.90
13850;DHT22;6995;52.618;13.488;2023-04-03T14:54:31;5.90;99.90
13850;DHT22;6995;52.618;13.488;2023-04-03T14:56:58;5.80;99.90
13850;DHT22;6995;52.618;13.488;2023-04-03T14:59:31;5.90;99.90
13850;DHT22;6995;52.618;13.488;2023-04-03T15:01:58;5.90;99.90
13850;DHT22;6995;52.618;13.488;2023-04-03T15:04:23;5.80;99.90
13850;DHT22;6995;52.618;13.488;2023-04-03T15:06:51;5.70;99.90
13850;DHT22;6995;52.618;13.488;2023-04-03T15:09:27;5.70;99.90
13850;DHT22;6995;52.618;13.488;2023-04-03T15:11:54;5.60;99.90
13850;DHT22;6995;52.618;13.488;2023-04-03T15:14:21;5.60;99.90
13850;DHT22;6995;52.618;13.488;2023-04-03T15:16:46;5.60;99.90
13850;DHT22;6995;52.618;13.488;2023-04-03T15:19:13;5.60;99.90
13850;DHT22;6995;52.618;13.488;2023-04-03T15:21:41;5.60;99.90
13850;DHT22;6995;52.618;13.488;2023-04-03T15:24:16;5.60;99.90
13850;DHT22;6995;52.618;13.488;2023-04-03T15:26:41;5.80;99.90
13850;DHT22;6995;52.618;13.488;2023-04-03T15:29:07;5.70;99.90
13850;DHT22;6995;52.618;13.488;2023-04-03T15:31:33;5.70;99.90
13850;DHT22;6995;52.618;13.488;2023-04-03T15:33:59;5.80;99.90
13850;DHT22;6995;52.618;13.488;2023-04-03T15:36:25;5.80;99.90
13850;DHT22;6995;52.618;13.488;2023-04-03T15:38:53;5.60;99.90
13850;DHT22;6995;52.618;13.488;2023-04-03T15:41:19;5.50;99.90
13850;DHT22;6995;52.618;13.488;2023-04-03T15:43:45;5.50;99.90
13850;DHT22;6995;52.618;13.488;2023-04-03T15:46:12;5.80;99.90
13850;DHT22;6995;52.618;13.488;2023-04-03T15:48:38;7.30;99.90
13850;DHT22;6995;52.618;13.488;2023-04-03T15:51:05;8.50;99.90
13850;DHT22;6995;52.618;13.488;2023-04-03T15:53:31;9.40;99.90
13850;DHT22;6995;52.618;13.488;2023-04-03T15:55:57;9.50;99.90
13850;DHT22;6995;52.618;13.488;2023-04-03T15:58:23;10.40;99.90
13850;DHT22;6995;52.618;13.488;2023-04-03T16:00:49;11.30;99.90
13850;DHT22;6995;52.618;13.488;2023-04-03T16:03:19;11.60;99.90
13850;DHT22;6995;52.618;13.488;2023-04-03T16:05:47;12.20;99.90
13850;DHT22;6995;52.618;13.488;2023-04-03T16:08:14;12.00;99.90
13850;DHT22;6995;52.618;13.488;2023-04-03T16:10:40;11.10;99.90
13850;DHT22;6995;52.618;13.488;2023-04-03T16:13:06;10.10;99.90
13850;DHT22;6995;52.618;13.488;2023-04-03T16:15:33;8.90;99.90
13850;DHT22;6995;52.618;13.488;2023-04-03T16:18:00;7.70;99.90
13850;DHT22;6995;52.618;13.488;2023-04-03T16:20:27;7.00;99.90
13850;DHT22;6995;52.618;13.488;2023-04-03T16:23:00;6.70;99.90
13850;DHT22;6995;52.618;13.488;2023-04-03T16:25:28;6.40;99.90
13850;DHT22;6995;52.618;13.488;2023-04-03T16:27:56;6.20;99.90
13850;DHT22;6995;52.618;13.488;2023-04-03T16:30:22;6.00;99.90
13850;DHT22;6995;52.618;13.488;2023-04-03T16:32:48;5.90;99.90
13850;DHT22;6995;52.618;13.488;2023-04-03T16:35:17;5.80;99.90
13850;DHT22;6995;52.618;13.488;2023-04-03T16:37:43;5.90;99.90
13850;DHT22;6995;52.618;13.488;2023-04-03T16:40:09;5.90;99.90
13850;DHT22;6995;52.618;13.488;2023-04-03T16:42:35;5.80;99.90
13850;DHT22;6995;52.618;13.488;2023-04-03T16:45:04;5.70;99.90
13850;DHT22;6995;52.618;13.488;2023-04-03T16:47:33;5.60;99.90
13850;DHT22;6995;52.618;13.488;2023-04-03T16:49:59;5.60;99.90
13850;DHT22;6995;52.618;13.488;2023-04-03T16:52:54;5.60;99.90
13850;DHT22;6995;52.618;13.488;2023-04-03T16:55:20;5.60;99.90
13850;DHT22;6995;52.618;13.488;2023-04-03T16:57:46;5.40;99.90
13850;DHT22;6995;52.618;13.488;2023-04-03T17:00:15;5.40;99.90
13850;DHT22;6995;52.618;13.488;2023-04-03T17:02:42;5.40;99.90
13850;DHT22;6995;52.618;13.488;2023-04-03T17:05:08;5.40;99.90
13850;DHT22;6995;52.618;13.488;2023-04-03T17:07:37;5.30;99.90
13850;DHT22;6995;52.618;13.488;2023-04-03T17:10:03;5.20;99.90
13850;DHT22;6995;52.618;13.488;2023-04-03T17:12:28;5.20;99.90
13850;DHT22;6995;52.618;13.488;2023-04-03T17:15:03;5.20;99.90
13850;DHT22;6995;52.618;13.488;2023-04-03T17:17:29;5.10;99.90
13850;DHT22;6995;52.618;13.488;2023-04-03T17:19:55;5.10;99.90
13850;DHT22;6995;52.618;13.488;2023-04-03T17:22:21;5.10;99.90
13850;DHT22;6995;52.618;13.488;2023-04-03T17:24:47;5.10;99.90
13850;DHT22;6995;52.618;13.488;2023-04-03T17:27:13;5.10;99.90
13850;DHT22;6995;52.618;13.488;2023-04-03T17:29:41;5.10;99.90
13850;DHT22;6995;52.618;13.488;2023-04-03T17:32:07;5.20;99.90
13850;DHT22;6995;52.618;13.488;2023-04-03T17:34:33;5.10;99.90
13850;DHT22;6995;52.618;13.488;2023-04-03T17:37:01;5.00;99.90
13850;DHT22;6995;52.618;13.488;2023-04-03T17:39:29;5.00;99.90
13850;DHT22;6995;52.618;13.488;2023-04-03T17:41:59;5.10;99.90
13850;DHT22;6995;52.618;13.488;2023-04-03T17:44:29;5.10;99.90
13850;DHT22;6995;52.618;13.488;2023-04-03T17:46:56;4.90;99.90
13850;DHT22;6995;52.618;13.488;2023-04-03T17:49:22;4.80;99.90
13850;DHT22;6995;52.618;13.488;2023-04-03T17:51:51;4.70;99.90
13850;DHT22;6995;52.618;13.488;2023-04-03T17:54:20;4.70;99.90
13850;DHT22;6995;52.618;13.488;2023-04-03T17:56:47;4.70;99.90
13850;DHT22;6995;52.618;13.488;2023-04-03T17:59:14;4.60;99.90
13850;DHT22;6995;52.618;13.488;2023-04-03T18:01:43;4.50;99.90
13850;DHT22;6995;52.618;13.488;2023-04-03T18:04:09;4.40;99.90
13850;DHT22;6995;52.618;13.488;2023-04-03T18:06:41;4.40;99.90
13850;DHT22;6995;52.618;13.488;2023-04-03T18:09:14;4.40;99.90
13850;DHT22;6995;52.618;13.488;2023-04-03T18:11:42;4.30;99.90
13850;DHT22;6995;52.618;13.488;2023-04-03T18:14:08;4.30;99.90
13850;DHT22;6995;52.618;13.488;2023-04-03T18:16:35;4.20;99.90
13850;DHT22;6995;52.618;13.488;2023-04-03T18:19:01;4.20;99.90
13850;DHT22;6995;52.618;13.488;2023-04-03T18:21:27;4.10;99.90